Terminal Aerodrome Forecast
Issued by NWS Boston, MA

Home | Current Version | Previous Version | Text Only | Print | Product List | Glossary On
Versions: 1 2 3 4 5 6 7 8 9 10 11 12 13 14 15 16 17 18 19 20 21 22 23 24
000
FTUS41 KBOX 221414 AAA
TAFBDL
TAF AMD
KBDL 221414Z 2214/2318 01009KT P6SM VCSH OVC070
     FM221700 01007KT P6SM -RA OVC060
     FM221900 01006KT 2SM -SNPL OVC020
     FM222100 01005KT 2SM -PLSNRA OVC008
     FM222200 01005KT 3SM -PLSN OVC008
     FM230000 02004KT P6SM OVC015=

USA.gov is the U.S. government's official web portal to all federal, state and local government web resources and services.